sensor_id;sensor_type;location;lat;lon;timestamp;P1;durP1;ratioP1;P2;durP2;ratioP2
56136;SDS011;42008;52.934;5.884;2023-09-19T00:00:45;13.32;;;3.17;;
56136;SDS011;42008;52.934;5.884;2023-09-19T00:03:12;12.80;;;2.77;;
56136;SDS011;42008;52.934;5.884;2023-09-19T00:05:38;12.00;;;2.70;;
56136;SDS011;42008;52.934;5.884;2023-09-19T00:08:04;13.67;;;3.23;;
56136;SDS011;42008;52.934;5.884;2023-09-19T00:10:31;15.27;;;3.00;;
56136;SDS011;42008;52.934;5.884;2023-09-19T00:13:00;16.63;;;3.60;;
56136;SDS011;42008;52.934;5.884;2023-09-19T00:15:30;16.40;;;3.20;;
56136;SDS011;42008;52.934;5.884;2023-09-19T00:18:03;13.87;;;3.13;;
56136;SDS011;42008;52.934;5.884;2023-09-19T00:20:31;13.83;;;2.87;;
56136;SDS011;42008;52.934;5.884;2023-09-19T00:22:57;11.50;;;2.80;;
56136;SDS011;42008;52.934;5.884;2023-09-19T00:25:27;16.87;;;3.20;;
56136;SDS011;42008;52.934;5.884;2023-09-19T00:27:54;9.67;;;2.47;;
56136;SDS011;42008;52.934;5.884;2023-09-19T00:30:20;12.70;;;3.23;;
56136;SDS011;42008;52.934;5.884;2023-09-19T00:32:50;13.33;;;2.83;;
56136;SDS011;42008;52.934;5.884;2023-09-19T00:35:22;15.57;;;3.53;;
56136;SDS011;42008;52.934;5.884;2023-09-19T00:37:51;11.82;;;3.08;;
56136;SDS011;42008;52.934;5.884;2023-09-19T00:40:17;13.60;;;2.77;;
56136;SDS011;42008;52.934;5.884;2023-09-19T00:42:43;13.33;;;3.13;;
56136;SDS011;42008;52.934;5.884;2023-09-19T00:45:11;9.83;;;2.27;;
56136;SDS011;42008;52.934;5.884;2023-09-19T00:47:38;10.57;;;2.70;;
56136;SDS011;42008;52.934;5.884;2023-09-19T00:50:05;16.53;;;2.90;;
56136;SDS011;42008;52.934;5.884;2023-09-19T00:52:39;11.60;;;2.70;;
56136;SDS011;42008;52.934;5.884;2023-09-19T00:55:08;8.73;;;1.88;;
56136;SDS011;42008;52.934;5.884;2023-09-19T00:57:34;15.37;;;3.30;;
56136;SDS011;42008;52.934;5.884;2023-09-19T01:00:03;9.17;;;2.97;;
56136;SDS011;42008;52.934;5.884;2023-09-19T01:02:33;15.10;;;2.43;;
56136;SDS011;42008;52.934;5.884;2023-09-19T01:05:00;9.87;;;2.53;;
56136;SDS011;42008;52.934;5.884;2023-09-19T01:07:29;10.30;;;2.50;;
56136;SDS011;42008;52.934;5.884;2023-09-19T01:09:59;17.10;;;3.53;;
56136;SDS011;42008;52.934;5.884;2023-09-19T01:12:54;12.43;;;2.50;;
56136;SDS011;42008;52.934;5.884;2023-09-19T01:26:55;13.27;;;2.60;;
56136;SDS011;42008;52.934;5.884;2023-09-19T01:29:44;12.50;;;2.50;;
56136;SDS011;42008;52.934;5.884;2023-09-19T01:32:13;13.83;;;2.70;;
56136;SDS011;42008;52.934;5.884;2023-09-19T01:37:15;14.50;;;3.43;;
56136;SDS011;42008;52.934;5.884;2023-09-19T01:40:12;12.10;;;2.60;;
56136;SDS011;42008;52.934;5.884;2023-09-19T01:45:37;11.60;;;2.37;;
56136;SDS011;42008;52.934;5.884;2023-09-19T01:48:19;10.33;;;2.50;;
56136;SDS011;42008;52.934;5.884;2023-09-19T01:51:07;16.17;;;2.57;;
56136;SDS011;42008;52.934;5.884;2023-09-19T01:53:36;11.47;;;2.77;;
56136;SDS011;42008;52.934;5.884;2023-09-19T01:56:16;12.80;;;2.63;;
56136;SDS011;42008;52.934;5.884;2023-09-19T01:58:51;14.63;;;3.47;;
56136;SDS011;42008;52.934;5.884;2023-09-19T02:01:22;12.37;;;3.00;;
56136;SDS011;42008;52.934;5.884;2023-09-19T02:03:50;9.57;;;2.10;;
56136;SDS011;42008;52.934;5.884;2023-09-19T02:06:16;11.07;;;2.43;;
56136;SDS011;42008;52.934;5.884;2023-09-19T02:08:43;12.50;;;2.47;;
56136;SDS011;42008;52.934;5.884;2023-09-19T02:11:10;16.33;;;2.47;;
56136;SDS011;42008;52.934;5.884;2023-09-19T02:13:36;12.90;;;2.57;;
56136;SDS011;42008;52.934;5.884;2023-09-19T02:16:02;11.83;;;2.30;;
56136;SDS011;42008;52.934;5.884;2023-09-19T02:18:29;9.60;;;2.73;;
56136;SDS011;42008;52.934;5.884;2023-09-19T02:20:55;10.67;;;2.30;;
56136;SDS011;42008;52.934;5.884;2023-09-19T02:23:23;12.17;;;2.30;;
56136;SDS011;42008;52.934;5.884;2023-09-19T02:25:55;10.87;;;2.07;;
56136;SDS011;42008;52.934;5.884;2023-09-19T02:28:25;14.00;;;2.70;;
56136;SDS011;42008;52.934;5.884;2023-09-19T02:30:55;11.03;;;2.70;;
56136;SDS011;42008;52.934;5.884;2023-09-19T02:33:21;12.13;;;2.63;;
56136;SDS011;42008;52.934;5.884;2023-09-19T02:35:47;14.77;;;2.80;;
56136;SDS011;42008;52.934;5.884;2023-09-19T02:38:12;10.50;;;2.37;;
56136;SDS011;42008;52.934;5.884;2023-09-19T02:40:39;9.90;;;2.40;;
56136;SDS011;42008;52.934;5.884;2023-09-19T02:43:05;19.90;;;2.93;;
56136;SDS011;42008;52.934;5.884;2023-09-19T02:45:30;10.57;;;2.90;;
56136;SDS011;42008;52.934;5.884;2023-09-19T02:47:57;11.80;;;3.03;;
56136;SDS011;42008;52.934;5.884;2023-09-19T02:50:23;15.53;;;2.77;;
56136;SDS011;42008;52.934;5.884;2023-09-19T02:52:49;14.20;;;3.37;;
56136;SDS011;42008;52.934;5.884;2023-09-19T02:55:15;12.43;;;2.37;;
56136;SDS011;42008;52.934;5.884;2023-09-19T02:57:47;15.93;;;2.65;;
56136;SDS011;42008;52.934;5.884;2023-09-19T03:00:17;10.87;;;2.60;;
56136;SDS011;42008;52.934;5.884;2023-09-19T03:02:47;12.67;;;3.00;;
56136;SDS011;42008;52.934;5.884;2023-09-19T03:05:18;11.68;;;2.42;;
56136;SDS011;42008;52.934;5.884;2023-09-19T03:07:46;14.60;;;2.90;;
56136;SDS011;42008;52.934;5.884;2023-09-19T03:10:15;18.40;;;3.07;;
56136;SDS011;42008;52.934;5.884;2023-09-19T03:12:44;12.93;;;2.97;;
56136;SDS011;42008;52.934;5.884;2023-09-19T03:15:10;14.47;;;2.73;;
56136;SDS011;42008;52.934;5.884;2023-09-19T03:17:36;13.60;;;3.20;;
56136;SDS011;42008;52.934;5.884;2023-09-19T03:20:02;15.93;;;2.27;;
56136;SDS011;42008;52.934;5.884;2023-09-19T03:22:35;16.57;;;2.80;;
56136;SDS011;42008;52.934;5.884;2023-09-19T03:25:00;11.07;;;2.57;;
56136;SDS011;42008;52.934;5.884;2023-09-19T03:27:26;12.33;;;3.13;;
56136;SDS011;42008;52.934;5.884;2023-09-19T03:29:52;12.43;;;2.90;;
56136;SDS011;42008;52.934;5.884;2023-09-19T03:32:18;14.10;;;2.90;;
56136;SDS011;42008;52.934;5.884;2023-09-19T03:34:44;11.87;;;2.73;;
56136;SDS011;42008;52.934;5.884;2023-09-19T03:37:10;12.30;;;2.70;;
56136;SDS011;42008;52.934;5.884;2023-09-19T03:39:35;12.07;;;2.63;;
56136;SDS011;42008;52.934;5.884;2023-09-19T03:42:01;12.63;;;2.63;;
56136;SDS011;42008;52.934;5.884;2023-09-19T03:44:29;14.67;;;3.20;;
56136;SDS011;42008;52.934;5.884;2023-09-19T03:46:55;11.23;;;2.50;;
56136;SDS011;42008;52.934;5.884;2023-09-19T03:49:21;12.67;;;3.60;;
56136;SDS011;42008;52.934;5.884;2023-09-19T03:51:47;11.87;;;2.80;;
56136;SDS011;42008;52.934;5.884;2023-09-19T03:54:12;9.30;;;2.27;;
56136;SDS011;42008;52.934;5.884;2023-09-19T03:56:38;11.23;;;2.83;;
56136;SDS011;42008;52.934;5.884;2023-09-19T03:59:04;15.50;;;2.77;;
56136;SDS011;42008;52.934;5.884;2023-09-19T04:01:29;12.13;;;2.43;;
56136;SDS011;42008;52.934;5.884;2023-09-19T04:03:57;15.13;;;2.80;;
56136;SDS011;42008;52.934;5.884;2023-09-19T04:06:23;13.10;;;2.60;;
56136;SDS011;42008;52.934;5.884;2023-09-19T04:08:49;15.70;;;3.43;;
56136;SDS011;42008;52.934;5.884;2023-09-19T04:11:14;13.87;;;2.90;;
56136;SDS011;42008;52.934;5.884;2023-09-19T04:13:40;16.20;;;2.50;;
56136;SDS011;42008;52.934;5.884;2023-09-19T04:16:05;16.77;;;3.17;;
56136;SDS011;42008;52.934;5.884;2023-09-19T04:18:34;14.00;;;3.00;;
56136;SDS011;42008;52.934;5.884;2023-09-19T04:21:03;13.63;;;3.53;;
56136;SDS011;42008;52.934;5.884;2023-09-19T04:23:30;15.50;;;2.97;;
56136;SDS011;42008;52.934;5.884;2023-09-19T04:25:56;12.43;;;2.43;;
56136;SDS011;42008;52.934;5.884;2023-09-19T04:28:22;20.63;;;3.93;;
56136;SDS011;42008;52.934;5.884;2023-09-19T04:30:49;16.27;;;3.03;;
56136;SDS011;42008;52.934;5.884;2023-09-19T04:33:15;15.90;;;3.00;;
56136;SDS011;42008;52.934;5.884;2023-09-19T04:35:40;15.73;;;2.50;;
56136;SDS011;42008;52.934;5.884;2023-09-19T04:38:07;16.73;;;3.20;;
56136;SDS011;42008;52.934;5.884;2023-09-19T04:40:33;16.03;;;3.53;;
56136;SDS011;42008;52.934;5.884;2023-09-19T04:42:59;17.10;;;3.07;;
56136;SDS011;42008;52.934;5.884;2023-09-19T04:45:25;12.53;;;3.00;;
56136;SDS011;42008;52.934;5.884;2023-09-19T04:47:52;10.43;;;2.50;;
56136;SDS011;42008;52.934;5.884;2023-09-19T04:50:18;13.40;;;2.70;;
56136;SDS011;42008;52.934;5.884;2023-09-19T04:52:48;13.33;;;2.67;;
56136;SDS011;42008;52.934;5.884;2023-09-19T04:55:16;17.33;;;3.50;;
56136;SDS011;42008;52.934;5.884;2023-09-19T05:00:16;17.13;;;2.80;;
56136;SDS011;42008;52.934;5.884;2023-09-19T05:02:44;18.87;;;3.37;;
56136;SDS011;42008;52.934;5.884;2023-09-19T05:05:10;11.03;;;2.73;;
56136;SDS011;42008;52.934;5.884;2023-09-19T05:07:38;15.57;;;3.10;;
56136;SDS011;42008;52.934;5.884;2023-09-19T05:10:05;16.30;;;3.13;;
56136;SDS011;42008;52.934;5.884;2023-09-19T05:12:33;16.50;;;3.27;;
56136;SDS011;42008;52.934;5.884;2023-09-19T05:15:04;15.00;;;3.10;;
56136;SDS011;42008;52.934;5.884;2023-09-19T05:17:34;17.30;;;3.80;;
56136;SDS011;42008;52.934;5.884;2023-09-19T05:20:00;13.57;;;3.00;;
56136;SDS011;42008;52.934;5.884;2023-09-19T05:22:40;18.70;;;2.93;;
56136;SDS011;42008;52.934;5.884;2023-09-19T05:25:06;14.07;;;3.10;;
56136;SDS011;42008;52.934;5.884;2023-09-19T05:27:32;20.43;;;3.37;;
56136;SDS011;42008;52.934;5.884;2023-09-19T05:29:58;20.57;;;3.13;;
56136;SDS011;42008;52.934;5.884;2023-09-19T05:32:24;14.47;;;3.30;;
56136;SDS011;42008;52.934;5.884;2023-09-19T05:34:50;14.57;;;2.87;;
56136;SDS011;42008;52.934;5.884;2023-09-19T05:37:18;15.77;;;3.43;;
56136;SDS011;42008;52.934;5.884;2023-09-19T05:39:43;15.10;;;3.83;;
56136;SDS011;42008;52.934;5.884;2023-09-19T05:42:09;13.93;;;2.60;;
56136;SDS011;42008;52.934;5.884;2023-09-19T05:44:34;10.00;;;2.90;;
56136;SDS011;42008;52.934;5.884;2023-09-19T05:47:01;11.77;;;2.43;;
56136;SDS011;42008;52.934;5.884;2023-09-19T05:49:28;15.67;;;3.43;;
56136;SDS011;42008;52.934;5.884;2023-09-19T05:51:53;18.47;;;3.47;;
56136;SDS011;42008;52.934;5.884;2023-09-19T05:54:20;13.87;;;2.47;;
56136;SDS011;42008;52.934;5.884;2023-09-19T05:56:45;13.87;;;3.47;;
56136;SDS011;42008;52.934;5.884;2023-09-19T05:59:12;15.83;;;2.60;;
56136;SDS011;42008;52.934;5.884;2023-09-19T06:01:40;9.33;;;2.50;;
56136;SDS011;42008;52.934;5.884;2023-09-19T06:04:07;13.30;;;2.73;;
56136;SDS011;42008;52.934;5.884;2023-09-19T06:06:33;13.37;;;2.97;;
56136;SDS011;42008;52.934;5.884;2023-09-19T06:09:04;12.47;;;3.23;;
56136;SDS011;42008;52.934;5.884;2023-09-19T06:11:30;13.47;;;2.60;;
56136;SDS011;42008;52.934;5.884;2023-09-19T06:13:59;11.07;;;2.93;;
56136;SDS011;42008;52.934;5.884;2023-09-19T06:16:29;11.37;;;2.53;;
56136;SDS011;42008;52.934;5.884;2023-09-19T06:18:55;17.07;;;3.60;;
56136;SDS011;42008;52.934;5.884;2023-09-19T06:21:23;17.80;;;2.67;;
56136;SDS011;42008;52.934;5.884;2023-09-19T06:23:49;12.80;;;3.33;;
56136;SDS011;42008;52.934;5.884;2023-09-19T06:26:15;10.80;;;3.13;;
56136;SDS011;42008;52.934;5.884;2023-09-19T06:28:40;16.93;;;3.67;;
56136;SDS011;42008;52.934;5.884;2023-09-19T06:31:07;16.80;;;3.33;;
56136;SDS011;42008;52.934;5.884;2023-09-19T06:33:35;14.03;;;3.00;;
56136;SDS011;42008;52.934;5.884;2023-09-19T06:36:04;15.17;;;2.87;;
56136;SDS011;42008;52.934;5.884;2023-09-19T06:38:30;13.43;;;2.93;;
56136;SDS011;42008;52.934;5.884;2023-09-19T06:40:56;16.93;;;2.70;;
56136;SDS011;42008;52.934;5.884;2023-09-19T06:43:23;14.43;;;3.50;;
56136;SDS011;42008;52.934;5.884;2023-09-19T06:45:49;12.90;;;3.10;;
56136;SDS011;42008;52.934;5.884;2023-09-19T06:48:16;11.40;;;2.30;;
56136;SDS011;42008;52.934;5.884;2023-09-19T06:50:43;13.87;;;3.17;;
56136;SDS011;42008;52.934;5.884;2023-09-19T06:53:09;14.53;;;3.90;;
56136;SDS011;42008;52.934;5.884;2023-09-19T06:55:35;10.10;;;2.37;;
56136;SDS011;42008;52.934;5.884;2023-09-19T06:58:01;12.80;;;2.57;;
56136;SDS011;42008;52.934;5.884;2023-09-19T07:00:27;13.33;;;2.77;;
56136;SDS011;42008;52.934;5.884;2023-09-19T07:03:00;15.17;;;2.70;;
56136;SDS011;42008;52.934;5.884;2023-09-19T07:05:28;11.97;;;2.77;;
56136;SDS011;42008;52.934;5.884;2023-09-19T07:07:56;15.40;;;2.90;;
56136;SDS011;42008;52.934;5.884;2023-09-19T07:10:24;12.37;;;3.13;;
56136;SDS011;42008;52.934;5.884;2023-09-19T07:15:27;14.40;;;2.77;;
56136;SDS011;42008;52.934;5.884;2023-09-19T07:17:56;11.13;;;3.10;;
56136;SDS011;42008;52.934;5.884;2023-09-19T07:20:22;12.30;;;2.70;;
56136;SDS011;42008;52.934;5.884;2023-09-19T07:22:51;12.80;;;2.83;;
56136;SDS011;42008;52.934;5.884;2023-09-19T07:25:19;14.23;;;2.97;;
56136;SDS011;42008;52.934;5.884;2023-09-19T07:27:45;15.73;;;3.47;;
56136;SDS011;42008;52.934;5.884;2023-09-19T07:30:11;14.50;;;3.53;;
56136;SDS011;42008;52.934;5.884;2023-09-19T07:32:37;14.17;;;3.10;;
56136;SDS011;42008;52.934;5.884;2023-09-19T07:35:03;18.07;;;3.53;;
56136;SDS011;42008;52.934;5.884;2023-09-19T07:37:32;11.27;;;2.90;;
56136;SDS011;42008;52.934;5.884;2023-09-19T07:40:02;13.83;;;3.63;;
56136;SDS011;42008;52.934;5.884;2023-09-19T07:42:34;15.57;;;2.87;;
56136;SDS011;42008;52.934;5.884;2023-09-19T07:45:02;12.93;;;3.00;;
56136;SDS011;42008;52.934;5.884;2023-09-19T07:47:28;15.20;;;2.97;;
56136;SDS011;42008;52.934;5.884;2023-09-19T07:49:55;15.27;;;3.07;;
56136;SDS011;42008;52.934;5.884;2023-09-19T07:52:20;14.00;;;3.27;;
56136;SDS011;42008;52.934;5.884;2023-09-19T07:54:47;15.53;;;3.50;;
56136;SDS011;42008;52.934;5.884;2023-09-19T07:57:14;16.63;;;3.13;;
56136;SDS011;42008;52.934;5.884;2023-09-19T07:59:41;14.33;;;3.40;;
56136;SDS011;42008;52.934;5.884;2023-09-19T08:02:07;11.40;;;2.73;;
56136;SDS011;42008;52.934;5.884;2023-09-19T08:04:34;13.20;;;3.30;;
56136;SDS011;42008;52.934;5.884;2023-09-19T08:07:00;12.63;;;2.87;;
56136;SDS011;42008;52.934;5.884;2023-09-19T08:09:28;12.47;;;3.33;;
56136;SDS011;42008;52.934;5.884;2023-09-19T08:11:58;14.07;;;3.30;;
56136;SDS011;42008;52.934;5.884;2023-09-19T08:14:24;14.43;;;3.10;;
56136;SDS011;42008;52.934;5.884;2023-09-19T08:16:51;14.47;;;3.03;;
56136;SDS011;42008;52.934;5.884;2023-09-19T08:19:16;16.33;;;3.23;;
56136;SDS011;42008;52.934;5.884;2023-09-19T08:21:42;17.80;;;3.70;;
56136;SDS011;42008;52.934;5.884;2023-09-19T08:24:12;17.80;;;3.63;;
56136;SDS011;42008;52.934;5.884;2023-09-19T08:26:39;11.43;;;2.80;;
56136;SDS011;42008;52.934;5.884;2023-09-19T08:29:05;15.80;;;3.20;;
56136;SDS011;42008;52.934;5.884;2023-09-19T08:31:37;13.90;;;3.40;;
56136;SDS011;42008;52.934;5.884;2023-09-19T08:34:02;16.67;;;3.60;;
56136;SDS011;42008;52.934;5.884;2023-09-19T08:36:28;14.77;;;3.60;;
56136;SDS011;42008;52.934;5.884;2023-09-19T08:38:53;21.07;;;3.57;;
56136;SDS011;42008;52.934;5.884;2023-09-19T08:41:19;18.37;;;3.70;;
56136;SDS011;42008;52.934;5.884;2023-09-19T08:43:44;18.73;;;3.50;;
56136;SDS011;42008;52.934;5.884;2023-09-19T08:46:14;18.97;;;3.90;;
56136;SDS011;42008;52.934;5.884;2023-09-19T08:48:57;15.57;;;3.57;;
56136;SDS011;42008;52.934;5.884;2023-09-19T08:51:42;18.77;;;3.27;;
56136;SDS011;42008;52.934;5.884;2023-09-19T08:54:12;18.70;;;3.60;;
56136;SDS011;42008;52.934;5.884;2023-09-19T08:56:44;12.30;;;3.43;;
56136;SDS011;42008;52.934;5.884;2023-09-19T08:59:12;14.00;;;3.83;;
56136;SDS011;42008;52.934;5.884;2023-09-19T09:01:39;16.70;;;4.23;;
56136;SDS011;42008;52.934;5.884;2023-09-19T09:04:07;16.00;;;3.40;;
56136;SDS011;42008;52.934;5.884;2023-09-19T09:06:34;16.03;;;4.00;;
56136;SDS011;42008;52.934;5.884;2023-09-19T09:09:01;18.00;;;3.70;;
56136;SDS011;42008;52.934;5.884;2023-09-19T09:11:28;16.13;;;3.63;;
56136;SDS011;42008;52.934;5.884;2023-09-19T09:13:53;14.70;;;3.60;;
56136;SDS011;42008;52.934;5.884;2023-09-19T09:16:19;17.53;;;3.73;;
56136;SDS011;42008;52.934;5.884;2023-09-19T09:18:45;17.77;;;3.67;;
56136;SDS011;42008;52.934;5.884;2023-09-19T09:21:12;19.70;;;4.13;;
56136;SDS011;42008;52.934;5.884;2023-09-19T09:23:39;14.57;;;3.20;;
56136;SDS011;42008;52.934;5.884;2023-09-19T09:26:05;12.77;;;3.27;;
56136;SDS011;42008;52.934;5.884;2023-09-19T09:28:32;22.47;;;4.53;;
56136;SDS011;42008;52.934;5.884;2023-09-19T09:31:00;15.53;;;4.10;;
56136;SDS011;42008;52.934;5.884;2023-09-19T09:33:33;19.30;;;3.53;;
56136;SDS011;42008;52.934;5.884;2023-09-19T09:35:59;17.77;;;4.47;;
56136;SDS011;42008;52.934;5.884;2023-09-19T09:38:28;14.87;;;3.90;;
56136;SDS011;42008;52.934;5.884;2023-09-19T09:41:10;15.23;;;3.77;;
56136;SDS011;42008;52.934;5.884;2023-09-19T09:43:40;16.87;;;3.60;;
56136;SDS011;42008;52.934;5.884;2023-09-19T09:46:15;13.73;;;4.13;;
56136;SDS011;42008;52.934;5.884;2023-09-19T09:48:57;17.10;;;3.57;;
56136;SDS011;42008;52.934;5.884;2023-09-19T09:51:41;23.43;;;4.60;;
56136;SDS011;42008;52.934;5.884;2023-09-19T09:56:56;18.93;;;3.97;;
56136;SDS011;42008;52.934;5.884;2023-09-19T10:02:16;17.90;;;3.77;;
56136;SDS011;42008;52.934;5.884;2023-09-19T10:04:53;17.33;;;3.73;;
56136;SDS011;42008;52.934;5.884;2023-09-19T10:07:28;21.77;;;4.90;;
56136;SDS011;42008;52.934;5.884;2023-09-19T10:09:57;18.90;;;4.43;;
56136;SDS011;42008;52.934;5.884;2023-09-19T10:12:42;18.07;;;4.40;;
56136;SDS011;42008;52.934;5.884;2023-09-19T10:15:09;16.88;;;3.80;;
56136;SDS011;42008;52.934;5.884;2023-09-19T10:17:36;14.87;;;3.70;;
56136;SDS011;42008;52.934;5.884;2023-09-19T10:20:05;11.93;;;3.30;;
56136;SDS011;42008;52.934;5.884;2023-09-19T10:22:42;17.37;;;4.13;;
56136;SDS011;42008;52.934;5.884;2023-09-19T10:25:10;22.13;;;4.33;;
56136;SDS011;42008;52.934;5.884;2023-09-19T10:27:37;17.20;;;4.07;;
56136;SDS011;42008;52.934;5.884;2023-09-19T10:30:07;14.53;;;3.70;;
56136;SDS011;42008;52.934;5.884;2023-09-19T10:32:34;22.73;;;3.80;;
56136;SDS011;42008;52.934;5.884;2023-09-19T10:35:01;21.00;;;5.00;;
56136;SDS011;42008;52.934;5.884;2023-09-19T10:37:30;19.33;;;3.87;;
56136;SDS011;42008;52.934;5.884;2023-09-19T10:39:59;19.87;;;4.20;;
56136;SDS011;42008;52.934;5.884;2023-09-19T10:42:25;15.37;;;3.50;;
56136;SDS011;42008;52.934;5.884;2023-09-19T10:44:54;19.33;;;4.53;;
56136;SDS011;42008;52.934;5.884;2023-09-19T10:47:25;17.87;;;4.13;;
56136;SDS011;42008;52.934;5.884;2023-09-19T10:49:51;19.57;;;3.97;;
56136;SDS011;42008;52.934;5.884;2023-09-19T10:52:17;13.17;;;3.03;;
56136;SDS011;42008;52.934;5.884;2023-09-19T10:54:48;14.93;;;3.55;;
56136;SDS011;42008;52.934;5.884;2023-09-19T10:57:19;17.00;;;3.47;;
56136;SDS011;42008;52.934;5.884;2023-09-19T11:00:04;15.07;;;4.10;;
56136;SDS011;42008;52.934;5.884;2023-09-19T11:05:39;14.63;;;3.43;;
56136;SDS011;42008;52.934;5.884;2023-09-19T11:08:09;15.47;;;3.63;;
56136;SDS011;42008;52.934;5.884;2023-09-19T11:10:49;23.00;;;4.53;;
56136;SDS011;42008;52.934;5.884;2023-09-19T11:13:31;18.47;;;3.60;;
56136;SDS011;42008;52.934;5.884;2023-09-19T11:26:42;15.97;;;3.20;;
56136;SDS011;42008;52.934;5.884;2023-09-19T11:29:24;21.40;;;4.80;;
56136;SDS011;42008;52.934;5.884;2023-09-19T11:31:51;12.43;;;3.23;;
56136;SDS011;42008;52.934;5.884;2023-09-19T11:40:07;22.60;;;3.97;;
56136;SDS011;42008;52.934;5.884;2023-09-19T11:42:48;18.17;;;3.57;;
56136;SDS011;42008;52.934;5.884;2023-09-19T11:48:21;21.17;;;4.13;;
56136;SDS011;42008;52.934;5.884;2023-09-19T11:50:50;15.30;;;3.87;;
56136;SDS011;42008;52.934;5.884;2023-09-19T11:53:16;12.73;;;3.23;;
56136;SDS011;42008;52.934;5.884;2023-09-19T11:55:42;15.53;;;2.93;;
56136;SDS011;42008;52.934;5.884;2023-09-19T11:58:08;12.63;;;2.73;;
56136;SDS011;42008;52.934;5.884;2023-09-19T12:00:37;16.03;;;3.73;;
56136;SDS011;42008;52.934;5.884;2023-09-19T12:03:08;12.10;;;2.67;;
56136;SDS011;42008;52.934;5.884;2023-09-19T12:05:35;16.17;;;3.22;;
56136;SDS011;42008;52.934;5.884;2023-09-19T12:08:02;16.17;;;3.50;;
56136;SDS011;42008;52.934;5.884;2023-09-19T12:10:34;10.93;;;2.72;;
56136;SDS011;42008;52.934;5.884;2023-09-19T12:13:19;13.00;;;3.17;;
56136;SDS011;42008;52.934;5.884;2023-09-19T12:15:45;14.93;;;3.07;;
56136;SDS011;42008;52.934;5.884;2023-09-19T12:18:25;12.23;;;2.73;;
56136;SDS011;42008;52.934;5.884;2023-09-19T12:20:52;8.10;;;2.40;;
56136;SDS011;42008;52.934;5.884;2023-09-19T12:23:20;16.43;;;2.63;;
56136;SDS011;42008;52.934;5.884;2023-09-19T12:25:46;12.33;;;3.07;;
56136;SDS011;42008;52.934;5.884;2023-09-19T12:28:13;19.57;;;2.83;;
56136;SDS011;42008;52.934;5.884;2023-09-19T12:30:47;12.57;;;3.00;;
56136;SDS011;42008;52.934;5.884;2023-09-19T12:33:19;10.47;;;2.63;;
56136;SDS011;42008;52.934;5.884;2023-09-19T12:35:46;15.20;;;2.90;;
56136;SDS011;42008;52.934;5.884;2023-09-19T12:38:21;13.03;;;2.37;;
56136;SDS011;42008;52.934;5.884;2023-09-19T12:40:54;15.77;;;3.00;;
56136;SDS011;42008;52.934;5.884;2023-09-19T12:43:21;18.50;;;2.87;;
56136;SDS011;42008;52.934;5.884;2023-09-19T12:45:48;10.33;;;2.70;;
56136;SDS011;42008;52.934;5.884;2023-09-19T12:48:17;11.27;;;2.10;;
56136;SDS011;42008;52.934;5.884;2023-09-19T12:51:06;12.10;;;2.73;;
56136;SDS011;42008;52.934;5.884;2023-09-19T12:53:36;12.57;;;2.33;;
56136;SDS011;42008;52.934;5.884;2023-09-19T12:56:07;14.27;;;3.17;;
56136;SDS011;42008;52.934;5.884;2023-09-19T12:58:47;11.10;;;2.20;;
56136;SDS011;42008;52.934;5.884;2023-09-19T13:01:20;13.00;;;1.90;;
56136;SDS011;42008;52.934;5.884;2023-09-19T13:04:10;8.93;;;1.90;;
56136;SDS011;42008;52.934;5.884;2023-09-19T13:06:54;10.60;;;2.07;;
56136;SDS011;42008;52.934;5.884;2023-09-19T13:09:20;7.43;;;2.13;;
56136;SDS011;42008;52.934;5.884;2023-09-19T13:11:47;12.37;;;2.57;;
56136;SDS011;42008;52.934;5.884;2023-09-19T13:14:19;12.30;;;2.47;;
56136;SDS011;42008;52.934;5.884;2023-09-19T13:16:55;9.77;;;2.20;;
56136;SDS011;42008;52.934;5.884;2023-09-19T13:25:14;8.87;;;2.37;;
56136;SDS011;42008;52.934;5.884;2023-09-19T13:28:01;13.33;;;2.40;;
56136;SDS011;42008;52.934;5.884;2023-09-19T13:30:29;12.10;;;2.37;;
56136;SDS011;42008;52.934;5.884;2023-09-19T13:33:06;9.90;;;2.03;;
56136;SDS011;42008;52.934;5.884;2023-09-19T13:35:34;11.20;;;2.33;;
56136;SDS011;42008;52.934;5.884;2023-09-19T13:38:01;8.67;;;1.90;;
56136;SDS011;42008;52.934;5.884;2023-09-19T13:40:27;11.27;;;2.17;;
56136;SDS011;42008;52.934;5.884;2023-09-19T13:42:55;6.53;;;1.90;;
56136;SDS011;42008;52.934;5.884;2023-09-19T13:45:21;9.53;;;2.47;;
56136;SDS011;42008;52.934;5.884;2023-09-19T13:47:49;8.53;;;2.03;;
56136;SDS011;42008;52.934;5.884;2023-09-19T13:50:15;8.53;;;2.17;;
56136;SDS011;42008;52.934;5.884;2023-09-19T13:52:41;10.17;;;2.30;;
56136;SDS011;42008;52.934;5.884;2023-09-19T13:55:07;10.17;;;2.53;;
56136;SDS011;42008;52.934;5.884;2023-09-19T13:57:33;8.87;;;2.43;;
56136;SDS011;42008;52.934;5.884;2023-09-19T13:59:59;16.10;;;2.80;;
56136;SDS011;42008;52.934;5.884;2023-09-19T14:02:24;11.63;;;3.37;;
56136;SDS011;42008;52.934;5.884;2023-09-19T14:04:51;9.90;;;2.47;;
56136;SDS011;42008;52.934;5.884;2023-09-19T14:07:17;16.67;;;2.47;;
56136;SDS011;42008;52.934;5.884;2023-09-19T14:09:43;11.23;;;2.50;;
56136;SDS011;42008;52.934;5.884;2023-09-19T14:12:09;11.63;;;3.07;;
56136;SDS011;42008;52.934;5.884;2023-09-19T14:14:35;8.10;;;2.60;;
56136;SDS011;42008;52.934;5.884;2023-09-19T14:17:02;8.67;;;2.40;;
56136;SDS011;42008;52.934;5.884;2023-09-19T14:19:28;10.57;;;1.80;;
56136;SDS011;42008;52.934;5.884;2023-09-19T14:21:53;8.17;;;2.50;;
56136;SDS011;42008;52.934;5.884;2023-09-19T14:24:20;17.27;;;2.73;;
56136;SDS011;42008;52.934;5.884;2023-09-19T14:26:47;8.73;;;2.37;;
56136;SDS011;42008;52.934;5.884;2023-09-19T14:29:14;10.33;;;2.20;;
56136;SDS011;42008;52.934;5.884;2023-09-19T14:31:40;12.13;;;2.97;;
56136;SDS011;42008;52.934;5.884;2023-09-19T14:34:06;7.57;;;2.00;;
56136;SDS011;42008;52.934;5.884;2023-09-19T14:36:32;8.03;;;2.37;;
56136;SDS011;42008;52.934;5.884;2023-09-19T14:38:58;10.43;;;2.93;;
56136;SDS011;42008;52.934;5.884;2023-09-19T14:41:24;9.83;;;2.50;;
56136;SDS011;42008;52.934;5.884;2023-09-19T14:43:53;15.20;;;2.20;;
56136;SDS011;42008;52.934;5.884;2023-09-19T14:46:20;8.53;;;2.57;;
56136;SDS011;42008;52.934;5.884;2023-09-19T14:48:46;10.17;;;2.27;;
56136;SDS011;42008;52.934;5.884;2023-09-19T14:51:12;9.73;;;2.77;;
56136;SDS011;42008;52.934;5.884;2023-09-19T14:53:38;11.10;;;2.50;;
56136;SDS011;42008;52.934;5.884;2023-09-19T14:56:08;9.30;;;2.47;;
56136;SDS011;42008;52.934;5.884;2023-09-19T14:58:34;11.10;;;2.43;;
56136;SDS011;42008;52.934;5.884;2023-09-19T15:03:33;10.03;;;2.80;;
56136;SDS011;42008;52.934;5.884;2023-09-19T15:06:01;14.63;;;2.60;;
56136;SDS011;42008;52.934;5.884;2023-09-19T15:08:31;10.70;;;2.37;;
56136;SDS011;42008;52.934;5.884;2023-09-19T15:10:59;11.00;;;2.60;;
56136;SDS011;42008;52.934;5.884;2023-09-19T15:13:32;11.00;;;2.60;;
56136;SDS011;42008;52.934;5.884;2023-09-19T15:16:02;8.03;;;2.73;;
56136;SDS011;42008;52.934;5.884;2023-09-19T15:18:29;11.53;;;2.40;;
56136;SDS011;42008;52.934;5.884;2023-09-19T15:20:55;14.73;;;3.23;;
56136;SDS011;42008;52.934;5.884;2023-09-19T15:23:30;15.20;;;3.20;;
56136;SDS011;42008;52.934;5.884;2023-09-19T15:25:59;12.13;;;2.83;;
56136;SDS011;42008;52.934;5.884;2023-09-19T15:28:25;9.40;;;2.90;;
56136;SDS011;42008;52.934;5.884;2023-09-19T15:30:50;11.97;;;3.20;;
56136;SDS011;42008;52.934;5.884;2023-09-19T15:33:22;14.05;;;2.95;;
56136;SDS011;42008;52.934;5.884;2023-09-19T15:35:47;10.40;;;2.63;;
56136;SDS011;42008;52.934;5.884;2023-09-19T15:38:13;12.17;;;2.93;;
56136;SDS011;42008;52.934;5.884;2023-09-19T15:40:45;12.10;;;2.60;;
56136;SDS011;42008;52.934;5.884;2023-09-19T15:43:11;12.63;;;2.80;;